Time;durP1;ratioP1;P1;durP2;ratioP2;P2;SDS_P1;SDS_P2;PMS_P1;PMS_P2;Temp;Humidity;BMP_temperature;BMP_pressure;BME280_temperature;BME280_humidity;BME280_pressure;Samples;Min_cycle;Max_cycle;Signal;HPM_P1;HPM_P2
2022/10/27 00:01:09;;;;;;;9.10;4.97;;;;;;;;;;6313343;28;20607;-79
2022/10/27 00:04:11;;;;;;;28.65;5.57;;;;;;;;;;6307387;28;20048;-80
2022/10/27 00:07:12;;;;;;;33.22;6.15;;;;;;;;;;6273445;28;20073;-79
2022/10/27 00:10:15;;;;;;;28.88;5.72;;;;;;;;;;6310069;28;20105;-80
2022/10/27 00:13:17;;;;;;;21.85;5.20;;;;;;;;;;6315001;28;20044;-80
2022/10/27 00:16:18;;;;;;;23.90;6.63;;;;;;;;;;6296771;28;20063;-80
2022/10/27 00:19:22;;;;;;;29.90;7.70;;;;;;;;;;6277129;28;20135;-80
2022/10/27 00:22:24;;;;;;;32.08;7.00;;;;;;;;;;6294306;28;20515;-79
2022/10/27 00:25:25;;;;;;;13.15;6.07;;;;;;;;;;6284448;28;20641;-79
2022/10/27 00:28:28;;;;;;;22.27;5.75;;;;;;;;;;6275746;28;20047;-80
2022/10/27 00:31:29;;;;;;;32.42;7.97;;;;;;;;;;6287988;28;20055;-80
2022/10/27 00:34:31;;;;;;;15.45;6.32;;;;;;;;;;6305984;28;20058;-79
2022/10/27 00:37:33;;;;;;;13.82;6.13;;;;;;;;;;6308471;28;20094;-79
2022/10/27 00:40:37;;;;;;;11.15;5.55;;;;;;;;;;6308946;28;20040;-79
2022/10/27 00:43:38;;;;;;;;;;;;;;;;;;6308766;28;20048;-80
2022/10/27 00:46:43;;;;;;;15.82;5.07;;;;;;;;;;6301204;28;19923;-80
2022/10/27 00:49:47;;;;;;;16.17;4.60;;;;;;;;;;6288721;28;20077;-80
2022/10/27 00:52:59;;;;;;;16.15;4.68;;;;;;;;;;6306640;28;20114;-80
2022/10/27 00:56:01;;;;;;;21.60;6.00;;;;;;;;;;6290168;28;20055;-79
2022/10/27 00:59:04;;;;;;;30.40;6.32;;;;;;;;;;6307384;28;20056;-81
2022/10/27 01:02:09;;;;;;;15.60;4.88;;;;;;;;;;6290442;28;20077;-79
2022/10/27 01:05:15;;;;;;;22.10;5.22;;;;;;;;;;6305387;28;20049;-80
2022/10/27 01:08:17;;;;;;;18.70;5.45;;;;;;;;;;6298357;28;20048;-80
2022/10/27 01:11:19;;;;;;;14.73;5.60;;;;;;;;;;6286679;28;20044;-80
2022/10/27 01:14:21;;;;;;;14.57;6.10;;;;;;;;;;6304200;28;20066;-80
2022/10/27 01:17:48;;;;;;;23.15;7.22;;;;;;;;;;6307078;28;20051;-80
2022/10/27 01:20:58;;;;;;;17.05;6.22;;;;;;;;;;6306121;28;20123;-80
2022/10/27 01:24:32;;;;;;;11.50;5.65;;;;;;;;;;6307692;28;20040;-80
2022/10/27 01:27:40;;;;;;;11.30;5.45;;;;;;;;;;6281215;28;20103;-80
2022/10/27 01:31:03;;;;;;;14.50;5.53;;;;;;;;;;6308832;28;20048;-80
2022/10/27 01:34:28;;;;;;;13.15;5.22;;;;;;;;;;6311739;28;20055;-80
2022/10/27 01:37:44;;;;;;;23.33;7.73;;;;;;;;;;6305392;28;22227;-80
2022/10/27 01:40:55;;;;;;;15.23;5.10;;;;;;;;;;6304293;28;20082;-79
2022/10/27 01:44:04;;;;;;;9.07;5.00;;;;;;;;;;6294127;28;20068;-80
2022/10/27 01:47:08;;;;;;;11.80;5.22;;;;;;;;;;6310448;27;20129;-79
2022/10/27 01:50:10;;;;;;;9.70;5.38;;;;;;;;;;6292863;28;20053;-80
2022/10/27 01:53:12;;;;;;;12.63;5.68;;;;;;;;;;6303912;28;20102;-80
2022/10/27 01:56:44;;;;;;;15.90;5.75;;;;;;;;;;6296101;28;20048;-79
2022/10/27 02:00:06;;;;;;;13.02;5.30;;;;;;;;;;6309826;28;20134;-80
2022/10/27 02:03:16;;;;;;;15.88;5.50;;;;;;;;;;6298701;28;20074;-80
2022/10/27 02:06:20;;;;;;;13.88;5.70;;;;;;;;;;6310789;28;20052;-80
2022/10/27 02:09:31;;;;;;;10.48;5.55;;;;;;;;;;6310796;28;20044;-79
2022/10/27 02:12:36;;;;;;;16.58;5.43;;;;;;;;;;6311123;28;20048;-80
2022/10/27 02:15:43;;;;;;;9.27;4.57;;;;;;;;;;6294163;28;20165;-80
2022/10/27 02:19:07;;;;;;;17.48;5.63;;;;;;;;;;6309564;28;20698;-79
2022/10/27 02:22:10;;;;;;;15.00;4.70;;;;;;;;;;6315769;28;20174;-80
2022/10/27 02:25:12;;;;;;;9.27;4.40;;;;;;;;;;6310242;28;20048;-80
2022/10/27 02:28:17;;;;;;;15.95;5.28;;;;;;;;;;6310473;28;20048;-80
2022/10/27 02:31:23;;;;;;;20.75;6.35;;;;;;;;;;6295806;28;20104;-80
2022/10/27 02:34:26;;;;;;;10.80;5.30;;;;;;;;;;6301949;28;20051;-80
2022/10/27 02:37:31;;;;;;;;;;;;;;;;;;6321780;28;20060;-79
2022/10/27 02:40:32;;;;;;;10.88;4.28;;;;;;;;;;6298607;28;20025;-81
2022/10/27 02:43:34;;;;;;;6.35;4.13;;;;;;;;;;6324068;28;20048;-80
2022/10/27 02:46:36;;;;;;;7.80;3.72;;;;;;;;;;6313448;28;20051;-81
2022/10/27 02:49:37;;;;;;;9.10;3.88;;;;;;;;;;6317409;28;20089;-80
2022/10/27 02:52:42;;;;;;;9.35;4.93;;;;;;;;;;6315459;28;20082;-81
2022/10/27 02:55:44;;;;;;;10.60;3.80;;;;;;;;;;6283480;28;20060;-80
2022/10/27 02:58:45;;;;;;;7.13;3.50;;;;;;;;;;6289710;28;20039;-81
2022/10/27 03:01:47;;;;;;;12.82;3.72;;;;;;;;;;6283403;28;20040;-80
2022/10/27 03:04:49;;;;;;;9.23;3.85;;;;;;;;;;6298178;28;20047;-80
2022/10/27 03:07:51;;;;;;;7.72;3.75;;;;;;;;;;6305803;28;20040;-80
2022/10/27 03:10:53;;;;;;;25.00;3.90;;;;;;;;;;6305242;28;20104;-79
2022/10/27 03:13:55;;;;;;;9.63;3.53;;;;;;;;;;6289367;28;20059;-81
2022/10/27 03:16:56;;;;;;;10.77;3.42;;;;;;;;;;6305636;28;20055;-80
2022/10/27 03:19:58;;;;;;;6.22;2.90;;;;;;;;;;6310754;28;20131;-80
2022/10/27 03:23:00;;;;;;;6.88;2.58;;;;;;;;;;6307345;28;20062;-79
2022/10/27 03:26:01;;;;;;;9.68;2.72;;;;;;;;;;6307136;28;20044;-80
2022/10/27 03:29:03;;;;;;;10.52;2.80;;;;;;;;;;6288487;28;20046;-81
2022/10/27 03:32:05;;;;;;;18.05;2.72;;;;;;;;;;6307672;28;20046;-81
2022/10/27 03:35:07;;;;;;;6.82;2.58;;;;;;;;;;6304182;28;20052;-80
2022/10/27 03:38:09;;;;;;;15.18;3.03;;;;;;;;;;6309365;28;20466;-82
2022/10/27 03:41:11;;;;;;;18.00;3.00;;;;;;;;;;6307229;28;20794;-81
2022/10/27 03:44:12;;;;;;;22.48;2.97;;;;;;;;;;6290989;28;20052;-82
2022/10/27 03:47:14;;;;;;;5.38;2.40;;;;;;;;;;6309634;28;20044;-81
2022/10/27 03:50:16;;;;;;;7.15;2.65;;;;;;;;;;6263813;28;20553;-81
2022/10/27 03:53:19;;;;;;;5.15;2.60;;;;;;;;;;6294755;28;20133;-81
2022/10/27 03:56:20;;;;;;;9.40;2.60;;;;;;;;;;6296710;28;20076;-81
2022/10/27 03:59:22;;;;;;;6.28;2.33;;;;;;;;;;6269374;28;20396;-81
2022/10/27 04:02:24;;;;;;;6.30;2.60;;;;;;;;;;6295458;28;20067;-81
2022/10/27 04:05:26;;;;;;;4.80;3.10;;;;;;;;;;6291527;28;20075;-81
2022/10/27 04:08:28;;;;;;;12.68;3.60;;;;;;;;;;6298090;28;20054;-80
2022/10/27 04:11:29;;;;;;;10.70;5.68;;;;;;;;;;6301268;28;20166;-81
2022/10/27 04:14:31;;;;;;;20.05;7.32;;;;;;;;;;6300687;28;20054;-81
2022/10/27 04:17:33;;;;;;;5.95;3.40;;;;;;;;;;6278127;28;20033;-81
2022/10/27 04:20:35;;;;;;;7.97;3.08;;;;;;;;;;6279503;28;20048;-81
2022/10/27 04:23:36;;;;;;;6.40;3.22;;;;;;;;;;6303565;28;20043;-81
2022/10/27 04:26:38;;;;;;;8.10;3.25;;;;;;;;;;6301557;28;20730;-81
2022/10/27 04:29:40;;;;;;;9.45;3.60;;;;;;;;;;6299624;28;20072;-81
2022/10/27 04:32:41;;;;;;;9.48;3.70;;;;;;;;;;6292728;28;20094;-81
2022/10/27 04:35:43;;;;;;;16.27;3.78;;;;;;;;;;6307708;28;20040;-81
2022/10/27 04:38:49;;;;;;;8.57;3.08;;;;;;;;;;6288317;28;20055;-81
2022/10/27 04:41:50;;;;;;;60.13;36.13;;;;;;;;;;6308970;28;20047;-81
2022/10/27 04:44:52;;;;;;;33.72;22.77;;;;;;;;;;6308548;28;20044;-81
2022/10/27 04:47:53;;;;;;;16.63;10.07;;;;;;;;;;6304818;28;20128;-81
2022/10/27 04:50:55;;;;;;;16.65;6.80;;;;;;;;;;6307432;28;20094;-81
2022/10/27 04:53:57;;;;;;;15.35;5.63;;;;;;;;;;6306018;28;20052;-81
2022/10/27 04:56:59;;;;;;;13.95;3.38;;;;;;;;;;6300983;28;20054;-81
2022/10/27 05:00:01;;;;;;;7.03;3.80;;;;;;;;;;6307665;28;20040;-81
2022/10/27 05:03:02;;;;;;;9.38;3.67;;;;;;;;;;6308347;28;20139;-81
2022/10/27 05:06:05;;;;;;;7.40;3.95;;;;;;;;;;6307427;28;20044;-81
2022/10/27 05:09:07;;;;;;;14.38;3.33;;;;;;;;;;6310655;28;20072;-81
2022/10/27 05:12:08;;;;;;;42.35;5.40;;;;;;;;;;6310010;28;20537;-81
2022/10/27 05:15:10;;;;;;;14.68;3.95;;;;;;;;;;6308366;28;20044;-81
2022/10/27 05:18:15;;;;;;;36.05;3.92;;;;;;;;;;6305380;28;20067;-81
2022/10/27 05:21:17;;;;;;;26.25;3.58;;;;;;;;;;6318674;28;20048;-82
2022/10/27 05:24:18;;;;;;;26.05;6.25;;;;;;;;;;6318402;28;20125;-81
2022/10/27 05:27:20;;;;;;;16.38;4.43;;;;;;;;;;6290767;28;21257;-81
2022/10/27 05:30:22;;;;;;;9.65;4.32;;;;;;;;;;6314283;28;20368;-81
2022/10/27 05:33:25;;;;;;;18.33;4.45;;;;;;;;;;6274692;28;20175;-81
2022/10/27 05:36:26;;;;;;;25.23;4.75;;;;;;;;;;6297930;28;20068;-81
2022/10/27 05:39:28;;;;;;;5.47;2.97;;;;;;;;;;6283303;28;20121;-81
2022/10/27 05:42:30;;;;;;;8.10;3.72;;;;;;;;;;6302360;28;20055;-81
2022/10/27 05:45:33;;;;;;;11.88;3.72;;;;;;;;;;6305996;28;20103;-81
2022/10/27 05:48:34;;;;;;;11.10;4.55;;;;;;;;;;6271139;28;20543;-81
2022/10/27 05:51:36;;;;;;;9.88;3.63;;;;;;;;;;6305437;28;20135;-81
2022/10/27 05:54:38;;;;;;;7.05;3.60;;;;;;;;;;6307262;28;20118;-81
2022/10/27 05:57:39;;;;;;;16.33;4.57;;;;;;;;;;6310965;28;20048;-81
2022/10/27 06:00:41;;;;;;;11.02;3.88;;;;;;;;;;6314286;28;20079;-81
2022/10/27 06:03:43;;;;;;;13.13;4.20;;;;;;;;;;6293655;28;20826;-81
2022/10/27 06:06:44;;;;;;;10.27;4.28;;;;;;;;;;6310418;28;20050;-82
2022/10/27 06:09:46;;;;;;;6.30;3.80;;;;;;;;;;6288754;28;20040;-81
2022/10/27 06:12:48;;;;;;;16.60;4.53;;;;;;;;;;6305865;28;20179;-80
2022/10/27 06:15:50;;;;;;;9.60;5.05;;;;;;;;;;6305415;28;20048;-80
2022/10/27 06:18:52;;;;;;;15.13;4.90;;;;;;;;;;6301645;28;20050;-80
2022/10/27 06:21:54;;;;;;;21.10;4.60;;;;;;;;;;6290406;28;20119;-80
2022/10/27 06:24:55;;;;;;;9.10;3.17;;;;;;;;;;6306423;28;20493;-80
2022/10/27 06:27:57;;;;;;;7.93;3.50;;;;;;;;;;6306733;28;20039;-79
2022/10/27 06:30:59;;;;;;;14.77;4.05;;;;;;;;;;6295424;28;20119;-80
2022/10/27 06:34:00;;;;;;;12.73;3.40;;;;;;;;;;6287565;28;20040;-80
2022/10/27 06:37:02;;;;;;;18.42;5.35;;;;;;;;;;6301310;28;20048;-81
2022/10/27 06:40:06;;;;;;;14.65;5.00;;;;;;;;;;6283482;28;20044;-81
2022/10/27 06:43:08;;;;;;;14.68;5.35;;;;;;;;;;6295738;28;20428;-80
2022/10/27 06:46:10;;;;;;;10.75;4.20;;;;;;;;;;6294642;28;20160;-80
2022/10/27 06:49:12;;;;;;;7.50;3.25;;;;;;;;;;6294725;28;20152;-82
2022/10/27 06:52:18;;;;;;;12.70;3.80;;;;;;;;;;6291503;28;20048;-82
2022/10/27 06:55:20;;;;;;;7.07;3.78;;;;;;;;;;6291847;28;20131;-81
2022/10/27 06:58:21;;;;;;;29.63;6.15;;;;;;;;;;6276467;28;20134;-82
2022/10/27 07:01:23;;;;;;;21.25;5.53;;;;;;;;;;6295617;28;20058;-82
2022/10/27 07:04:25;;;;;;;13.15;4.50;;;;;;;;;;6295572;28;20089;-82
2022/10/27 07:07:26;;;;;;;19.88;4.05;;;;;;;;;;6294241;28;20403;-81
2022/10/27 07:10:28;;;;;;;10.55;3.83;;;;;;;;;;6298465;28;20044;-80
2022/10/27 07:13:29;;;;;;;12.65;3.70;;;;;;;;;;6282212;28;20047;-81
2022/10/27 07:16:31;;;;;;;20.67;4.90;;;;;;;;;;6295940;28;20048;-81
2022/10/27 07:19:35;;;;;;;5.88;3.67;;;;;;;;;;6296556;28;20140;-81
2022/10/27 07:22:40;;;;;;;16.17;4.30;;;;;;;;;;6297941;28;20164;-83
2022/10/27 07:25:42;;;;;;;9.32;4.22;;;;;;;;;;6294703;28;20078;-80
2022/10/27 07:28:43;;;;;;;6.93;4.00;;;;;;;;;;6297999;28;20043;-83
2022/10/27 07:31:47;;;;;;;12.13;4.15;;;;;;;;;;6300154;28;20491;-84
2022/10/27 07:34:49;;;;;;;10.98;3.20;;;;;;;;;;6280302;28;20064;-84
2022/10/27 07:37:51;;;;;;;7.35;3.30;;;;;;;;;;6296078;28;20044;-83
2022/10/27 07:40:55;;;;;;;23.75;5.15;;;;;;;;;;6298042;28;20161;-85
2022/10/27 07:43:56;;;;;;;11.43;5.57;;;;;;;;;;6287888;28;20122;-85
2022/10/27 07:47:01;;;;;;;21.75;4.50;;;;;;;;;;6298445;28;20058;-83
2022/10/27 07:50:03;;;;;;;10.88;4.10;;;;;;;;;;6294241;28;20072;-83
2022/10/27 07:53:04;;;;;;;11.63;3.80;;;;;;;;;;6295712;28;20136;-83
2022/10/27 07:56:06;;;;;;;8.20;3.20;;;;;;;;;;6297617;28;20044;-83
2022/10/27 07:59:08;;;;;;;10.90;3.60;;;;;;;;;;6287019;28;20128;-83
2022/10/27 08:02:10;;;;;;;16.60;4.75;;;;;;;;;;6303517;28;20123;-83
2022/10/27 08:05:12;;;;;;;20.77;5.93;;;;;;;;;;6303971;28;20056;-83
2022/10/27 08:08:14;;;;;;;22.42;5.53;;;;;;;;;;6309213;28;20051;-83
2022/10/27 08:11:16;;;;;;;18.15;5.90;;;;;;;;;;6305951;28;20841;-82
2022/10/27 08:14:18;;;;;;;16.40;6.32;;;;;;;;;;6301721;28;20120;-84
2022/10/27 08:17:20;;;;;;;15.87;6.90;;;;;;;;;;6294349;28;20514;-84
2022/10/27 08:20:22;;;;;;;17.40;6.45;;;;;;;;;;6268392;28;20050;-85
2022/10/27 08:23:24;;;;;;;28.30;6.43;;;;;;;;;;6274270;28;20126;-85
2022/10/27 08:26:26;;;;;;;28.75;7.00;;;;;;;;;;6294368;28;20431;-84
2022/10/27 08:29:27;;;;;;;19.45;6.22;;;;;;;;;;6296461;28;20047;-84
2022/10/27 08:32:29;;;;;;;21.35;7.07;;;;;;;;;;6276348;28;20119;-84
2022/10/27 08:35:32;;;;;;;18.05;6.28;;;;;;;;;;6290271;28;20107;-85
2022/10/27 08:38:35;;;;;;;20.30;5.90;;;;;;;;;;6294289;28;20036;-85
2022/10/27 08:42:25;;;;;;;19.10;6.03;;;;;;;;;;6279581;28;20089;-83
2022/10/27 08:45:33;;;;;;;11.73;4.70;;;;;;;;;;6227396;28;20057;-84
2022/10/27 08:48:36;;;;;;;14.63;6.32;;;;;;;;;;6239415;28;20049;-83
2022/10/27 08:51:39;;;;;;;;;;;;;;;;;;6287593;28;20051;-83
2022/10/27 08:54:45;;;;;;;17.52;4.75;;;;;;;;;;6301206;28;19969;-84
2022/10/27 08:58:26;;;;;;;19.27;5.07;;;;;;;;;;6296840;28;20047;-83
2022/10/27 09:01:47;;;;;;;15.48;4.80;;;;;;;;;;6281648;28;20051;-83
2022/10/27 09:05:16;;;;;;;18.88;5.78;;;;;;;;;;6282103;28;20055;-83
2022/10/27 09:08:18;;;;;;;15.60;5.18;;;;;;;;;;6284105;28;20058;-82
2022/10/27 09:11:49;;;;;;;14.40;4.75;;;;;;;;;;6298936;28;20048;-81
2022/10/27 09:15:09;;;;;;;16.20;5.63;;;;;;;;;;6296698;28;20487;-81
2022/10/27 09:18:21;;;;;;;15.50;5.50;;;;;;;;;;6294603;28;20071;-80
2022/10/27 09:21:26;;;;;;;17.15;5.28;;;;;;;;;;6291783;28;20142;-81
2022/10/27 09:24:30;;;;;;;15.13;5.90;;;;;;;;;;6290712;28;20040;-82
2022/10/27 09:27:34;;;;;;;16.92;5.07;;;;;;;;;;6272382;28;20072;-79
2022/10/27 09:30:38;;;;;;;24.38;6.22;;;;;;;;;;6268306;28;20073;-79
2022/10/27 09:33:55;;;;;;;13.95;6.07;;;;;;;;;;6289288;28;20054;-81
2022/10/27 09:36:57;;;;;;;13.93;6.07;;;;;;;;;;6287021;28;20050;-80
2022/10/27 09:39:59;;;;;;;17.73;6.20;;;;;;;;;;6292151;28;20130;-79
2022/10/27 09:43:02;;;;;;;15.90;5.38;;;;;;;;;;6292057;28;20055;-81
2022/10/27 09:46:05;;;;;;;;;;;;;;;;;;6303299;28;20043;-78
2022/10/27 09:49:07;;;;;;;15.02;6.47;;;;;;;;;;6292551;28;20588;-78
2022/10/27 09:52:16;;;;;;;11.13;5.13;;;;;;;;;;6291189;28;20040;-76
2022/10/27 09:55:20;;;;;;;16.15;6.40;;;;;;;;;;6292663;28;20051;-83
2022/10/27 09:58:21;;;;;;;17.25;6.57;;;;;;;;;;6265821;28;20161;-81
2022/10/27 10:01:25;;;;;;;15.80;7.03;;;;;;;;;;6297829;28;20044;-79
2022/10/27 10:04:34;;;;;;;18.42;7.18;;;;;;;;;;6288733;28;20039;-82
2022/10/27 10:07:38;;;;;;;15.65;7.63;;;;;;;;;;6285671;28;20533;-82
2022/10/27 10:10:53;;;;;;;15.63;7.22;;;;;;;;;;6280052;28;20044;-81
2022/10/27 10:14:00;;;;;;;14.57;7.93;;;;;;;;;;6289858;28;20048;-81
2022/10/27 10:17:01;;;;;;;16.67;8.43;;;;;;;;;;6294937;28;20048;-81
2022/10/27 10:20:06;;;;;;;16.63;8.60;;;;;;;;;;6301553;28;20047;-82
2022/10/27 10:23:22;;;;;;;11.23;6.95;;;;;;;;;;6312724;28;20157;-79
2022/10/27 10:26:27;;;;;;;12.45;7.57;;;;;;;;;;6304051;28;20132;-80
2022/10/27 10:29:32;;;;;;;10.80;6.93;;;;;;;;;;6296229;28;20049;-82
2022/10/27 10:32:36;;;;;;;12.27;6.82;;;;;;;;;;6292544;28;20120;-81
2022/10/27 10:35:47;;;;;;;7.82;6.07;;;;;;;;;;6284311;28;20059;-80
2022/10/27 10:38:51;;;;;;;11.75;6.32;;;;;;;;;;6282557;28;20048;-80
2022/10/27 10:42:12;;;;;;;8.82;6.43;;;;;;;;;;6306264;28;20036;-81
2022/10/27 10:45:20;;;;;;;11.57;6.38;;;;;;;;;;6285614;28;20079;-80
2022/10/27 10:48:33;;;;;;;10.25;5.97;;;;;;;;;;6303100;28;20097;-80
2022/10/27 10:51:35;;;;;;;10.95;6.63;;;;;;;;;;6287939;28;20106;-82
2022/10/27 10:54:41;;;;;;;9.05;5.28;;;;;;;;;;6307751;28;20054;-80
2022/10/27 10:57:44;;;;;;;7.07;5.50;;;;;;;;;;6302420;28;20047;-80
2022/10/27 11:00:52;;;;;;;8.77;5.38;;;;;;;;;;6281063;28;20050;-79
2022/10/27 11:03:54;;;;;;;6.53;5.30;;;;;;;;;;6298803;28;20054;-81
2022/10/27 11:07:22;;;;;;;8.60;4.65;;;;;;;;;;6295896;28;20054;-79
2022/10/27 11:10:46;;;;;;;9.40;4.95;;;;;;;;;;6300151;28;20040;-81
2022/10/27 11:13:54;;;;;;;6.72;4.57;;;;;;;;;;6278423;28;20056;-80
2022/10/27 11:17:00;;;;;;;5.05;4.32;;;;;;;;;;6279117;28;20054;-80
2022/10/27 11:20:05;;;;;;;7.40;4.40;;;;;;;;;;6295395;28;20104;-80
2022/10/27 11:23:17;;;;;;;7.35;4.60;;;;;;;;;;6297441;28;20040;-80
2022/10/27 11:26:27;;;;;;;8.05;3.72;;;;;;;;;;6296516;28;20404;-80
2022/10/27 11:29:49;;;;;;;8.32;3.88;;;;;;;;;;6299404;28;20054;-81
2022/10/27 11:33:10;;;;;;;9.05;4.13;;;;;;;;;;6285260;28;20044;-81
2022/10/27 11:36:22;;;;;;;8.50;6.32;;;;;;;;;;6289701;28;20123;-79
2022/10/27 11:39:34;;;;;;;7.90;6.95;;;;;;;;;;6277260;28;20058;-81
2022/10/27 11:42:59;;;;;;;5.35;3.13;;;;;;;;;;6295704;28;20040;-80
2022/10/27 11:46:09;;;;;;;5.10;3.10;;;;;;;;;;6294212;28;20393;-81
2022/10/27 11:49:46;;;;;;;5.55;2.70;;;;;;;;;;6293497;28;20050;-80
2022/10/27 11:52:50;;;;;;;5.03;2.78;;;;;;;;;;6190526;28;20165;-81
2022/10/27 11:56:13;;;;;;;6.43;2.50;;;;;;;;;;6297885;28;20058;-80
2022/10/27 11:59:37;;;;;;;5.15;2.35;;;;;;;;;;6296789;28;20048;-80
2022/10/27 12:02:41;;;;;;;3.90;2.28;;;;;;;;;;6294695;28;20050;-80
2022/10/27 12:05:52;;;;;;;8.73;2.80;;;;;;;;;;6288051;28;20106;-81
2022/10/27 12:09:06;;;;;;;3.85;2.22;;;;;;;;;;6294468;28;20047;-80
2022/10/27 12:12:36;;;;;;;4.95;2.55;;;;;;;;;;6289920;28;21105;-80
2022/10/27 12:16:12;;;;;;;4.45;2.90;;;;;;;;;;6294179;28;20484;-81
2022/10/27 12:19:18;;;;;;;5.18;3.20;;;;;;;;;;6268457;28;20059;-80
2022/10/27 12:22:38;;;;;;;4.32;2.97;;;;;;;;;;6275259;28;20043;-80
2022/10/27 12:25:54;;;;;;;3.83;2.90;;;;;;;;;;6292059;28;20176;-80
2022/10/27 12:28:56;;;;;;;5.55;2.70;;;;;;;;;;6294734;28;20044;-81
2022/10/27 12:32:01;;;;;;;;;;;;;;;;;;6295815;28;20143;-81
2022/10/27 12:35:21;;;;;;;5.80;1.92;;;;;;;;;;6291708;28;19939;-80
2022/10/27 12:38:30;;;;;;;5.25;2.00;;;;;;;;;;6285069;28;20051;-80
2022/10/27 12:41:43;;;;;;;6.97;2.17;;;;;;;;;;6284036;28;20048;-80
2022/10/27 12:45:20;;;;;;;4.75;2.13;;;;;;;;;;6293810;28;21074;-80
2022/10/27 12:48:40;;;;;;;10.13;2.33;;;;;;;;;;6289269;28;21092;-80
2022/10/27 12:51:50;;;;;;;5.50;1.73;;;;;;;;;;6295575;28;20039;-81
2022/10/27 12:55:15;;;;;;;4.47;2.10;;;;;;;;;;6290965;28;20047;-80
2022/10/27 12:58:31;;;;;;;5.03;2.10;;;;;;;;;;6292391;28;20040;-80
2022/10/27 13:01:59;;;;;;;3.30;2.00;;;;;;;;;;6292834;28;20430;-81
2022/10/27 13:05:29;;;;;;;4.97;2.10;;;;;;;;;;6287068;28;20047;-80
2022/10/27 13:08:55;;;;;;;4.25;2.15;;;;;;;;;;6282778;28;20047;-80
2022/10/27 13:12:34;;;;;;;6.15;2.17;;;;;;;;;;6289202;28;20048;-80
2022/10/27 13:15:52;;;;;;;5.90;2.13;;;;;;;;;;6277334;28;20202;-80
2022/10/27 13:18:59;;;;;;;3.95;1.90;;;;;;;;;;6298199;28;20056;-81
2022/10/27 13:22:11;;;;;;;2.78;1.88;;;;;;;;;;6308071;28;20127;-81
2022/10/27 13:25:17;;;;;;;5.30;2.10;;;;;;;;;;6291988;28;20044;-80
2022/10/27 13:28:19;;;;;;;5.80;2.20;;;;;;;;;;6300609;28;20449;-81
2022/10/27 13:31:24;;;;;;;5.37;2.03;;;;;;;;;;6309211;28;20111;-80
2022/10/27 13:34:25;;;;;;;3.58;1.77;;;;;;;;;;6277232;28;20138;-81
2022/10/27 13:37:47;;;;;;;3.65;1.80;;;;;;;;;;6285364;28;20138;-80
2022/10/27 13:40:52;;;;;;;4.38;2.22;;;;;;;;;;6267560;28;20055;-80
2022/10/27 13:43:55;;;;;;;6.07;2.10;;;;;;;;;;6291187;28;20039;-80
2022/10/27 13:47:04;;;;;;;5.25;2.08;;;;;;;;;;6275916;28;20389;-80
2022/10/27 13:50:36;;;;;;;3.95;2.00;;;;;;;;;;6289577;28;22031;-80
2022/10/27 13:53:38;;;;;;;4.72;2.10;;;;;;;;;;6297077;28;20527;-79
2022/10/27 13:56:39;;;;;;;4.93;1.90;;;;;;;;;;6282642;28;20107;-80
2022/10/27 13:59:44;;;;;;;4.30;1.80;;;;;;;;;;6293896;28;20130;-80
2022/10/27 14:02:54;;;;;;;4.10;2.05;;;;;;;;;;6295964;28;20050;-78
2022/10/27 14:05:57;;;;;;;7.53;1.90;;;;;;;;;;6282002;28;20048;-79
2022/10/27 14:09:23;;;;;;;4.22;2.03;;;;;;;;;;6305884;28;20062;-79
2022/10/27 14:12:36;;;;;;;5.75;2.00;;;;;;;;;;6300216;28;20050;-79
2022/10/27 14:15:37;;;;;;;5.78;2.22;;;;;;;;;;6292531;28;20051;-78
2022/10/27 14:18:39;;;;;;;4.70;2.15;;;;;;;;;;6305508;28;20058;-79
2022/10/27 14:21:53;;;;;;;5.40;1.97;;;;;;;;;;6305650;28;20040;-78
2022/10/27 14:25:03;;;;;;;4.18;1.90;;;;;;;;;;6305190;28;20097;-78
2022/10/27 14:28:22;;;;;;;3.80;2.08;;;;;;;;;;6304879;28;20040;-79
2022/10/27 14:31:24;;;;;;;4.85;1.92;;;;;;;;;;6285657;28;22516;-80
2022/10/27 14:34:26;;;;;;;5.78;2.20;;;;;;;;;;6286550;28;20067;-79
2022/10/27 14:37:30;;;;;;;6.38;2.42;;;;;;;;;;6303978;28;21301;-80
2022/10/27 14:40:37;;;;;;;6.60;2.13;;;;;;;;;;6280233;28;20804;-80
2022/10/27 14:43:43;;;;;;;4.55;1.80;;;;;;;;;;6268272;28;20075;-79
2022/10/27 14:46:48;;;;;;;4.70;1.98;;;;;;;;;;6277131;28;20040;-80
2022/10/27 14:49:53;;;;;;;3.92;2.60;;;;;;;;;;6293515;28;20104;-80
2022/10/27 14:52:58;;;;;;;3.72;2.63;;;;;;;;;;6300108;28;20047;-81
2022/10/27 14:56:14;;;;;;;6.03;2.92;;;;;;;;;;6300340;28;20075;-80
2022/10/27 14:59:28;;;;;;;6.95;2.78;;;;;;;;;;6301679;28;20133;-81
2022/10/27 15:02:30;;;;;;;8.52;2.88;;;;;;;;;;6281943;28;20118;-80
2022/10/27 15:05:35;;;;;;;7.60;2.83;;;;;;;;;;6300724;28;20047;-80
2022/10/27 15:08:42;;;;;;;7.40;2.60;;;;;;;;;;6298704;28;20446;-80
2022/10/27 15:11:45;;;;;;;4.78;2.58;;;;;;;;;;6267415;28;20040;-81
2022/10/27 15:14:47;;;;;;;9.75;3.08;;;;;;;;;;6295297;28;20054;-80
2022/10/27 15:17:49;;;;;;;8.45;3.60;;;;;;;;;;6291870;28;20051;-80
2022/10/27 15:20:52;;;;;;;;;;;;;;;;;;6299188;28;20051;-81
2022/10/27 15:24:04;;;;;;;12.38;3.20;;;;;;;;;;6306478;28;19920;-80
2022/10/27 15:27:10;;;;;;;4.93;2.90;;;;;;;;;;6283358;28;20146;-80
2022/10/27 15:30:18;;;;;;;4.18;2.75;;;;;;;;;;6291410;28;20076;-80
2022/10/27 15:33:25;;;;;;;4.40;2.30;;;;;;;;;;6273485;28;20048;-80
2022/10/27 15:36:27;;;;;;;5.57;2.35;;;;;;;;;;6273210;28;20040;-80
2022/10/27 15:39:29;;;;;;;4.03;2.55;;;;;;;;;;6293317;28;20036;-79
2022/10/27 15:42:35;;;;;;;8.30;3.20;;;;;;;;;;6291677;28;20048;-80
2022/10/27 15:45:40;;;;;;;7.15;3.42;;;;;;;;;;6295440;28;20044;-79
2022/10/27 15:48:44;;;;;;;6.65;3.65;;;;;;;;;;6276105;28;20059;-80
2022/10/27 15:51:56;;;;;;;11.07;4.43;;;;;;;;;;6275966;28;20551;-80
2022/10/27 15:54:58;;;;;;;11.85;5.57;;;;;;;;;;6286485;28;20043;-80
2022/10/27 15:58:27;;;;;;;11.18;6.30;;;;;;;;;;6298355;28;20060;-80
2022/10/27 16:01:33;;;;;;;12.98;6.13;;;;;;;;;;6282301;28;21287;-79
2022/10/27 16:04:38;;;;;;;11.57;5.63;;;;;;;;;;6293041;28;20056;-80
2022/10/27 16:07:39;;;;;;;12.05;5.90;;;;;;;;;;6285740;28;20652;-80
2022/10/27 16:10:41;;;;;;;14.68;5.32;;;;;;;;;;6283666;28;20048;-79
2022/10/27 16:13:50;;;;;;;9.57;4.97;;;;;;;;;;6286259;28;20043;-79
2022/10/27 16:16:52;;;;;;;10.55;5.55;;;;;;;;;;6289942;28;20048;-78
2022/10/27 16:20:00;;;;;;;10.27;6.80;;;;;;;;;;6292639;28;20041;-78
2022/10/27 16:23:02;;;;;;;19.50;10.10;;;;;;;;;;6297806;28;20070;-79
2022/10/27 16:26:04;;;;;;;16.50;8.90;;;;;;;;;;6301858;28;20044;-79
2022/10/27 16:29:05;;;;;;;19.00;8.75;;;;;;;;;;6309892;28;20430;-77
2022/10/27 16:32:11;;;;;;;20.00;8.95;;;;;;;;;;6301657;28;20123;-77
2022/10/27 16:35:14;;;;;;;16.90;7.40;;;;;;;;;;6302994;28;20048;-79
2022/10/27 16:38:16;;;;;;;16.08;8.50;;;;;;;;;;6306935;28;20161;-78
2022/10/27 16:41:24;;;;;;;20.50;14.63;;;;;;;;;;6298214;28;20065;-79
2022/10/27 16:44:26;;;;;;;13.20;7.38;;;;;;;;;;6306049;28;22039;-78
2022/10/27 16:47:28;;;;;;;8.43;6.50;;;;;;;;;;6313265;28;20082;-78
2022/10/27 16:50:30;;;;;;;26.17;17.88;;;;;;;;;;6280232;28;20177;-79
2022/10/27 16:53:32;;;;;;;18.15;9.30;;;;;;;;;;6311920;28;20052;-79
2022/10/27 16:56:33;;;;;;;12.07;7.47;;;;;;;;;;6302348;28;20183;-80
2022/10/27 16:59:35;;;;;;;21.83;7.40;;;;;;;;;;6302030;28;20055;-78
2022/10/27 17:02:37;;;;;;;14.35;6.35;;;;;;;;;;6314872;28;20112;-78
2022/10/27 17:05:38;;;;;;;19.50;11.55;;;;;;;;;;6312208;28;20062;-79
2022/10/27 17:08:40;;;;;;;12.65;6.40;;;;;;;;;;6315648;28;20055;-80
2022/10/27 17:11:42;;;;;;;30.55;22.88;;;;;;;;;;6308757;28;20111;-78
2022/10/27 17:14:44;;;;;;;16.98;8.30;;;;;;;;;;6306912;28;20039;-80
2022/10/27 17:17:51;;;;;;;15.82;7.70;;;;;;;;;;6308696;28;20058;-80
2022/10/27 17:20:57;;;;;;;13.90;9.82;;;;;;;;;;6308134;28;20055;-79
2022/10/27 17:23:59;;;;;;;21.42;12.82;;;;;;;;;;6311615;28;20055;-80
2022/10/27 17:27:02;;;;;;;12.45;8.23;;;;;;;;;;6312731;28;20535;-79
2022/10/27 17:30:04;;;;;;;;;;;;;;;;;;6312472;28;20592;-79
2022/10/27 17:33:08;;;;;;;8.93;5.55;;;;;;;;;;6309232;28;19928;-79
2022/10/27 17:36:11;;;;;;;;;;;;;;;;;;6295020;28;20044;-79
2022/10/27 17:39:13;;;;;;;20.67;11.18;;;;;;;;;;6291639;28;19920;-80
2022/10/27 17:42:16;;;;;;;34.63;14.70;;;;;;;;;;6292289;28;20047;-79
2022/10/27 17:45:17;;;;;;;32.33;15.30;;;;;;;;;;6297509;28;20052;-79
2022/10/27 17:48:19;;;;;;;13.70;7.30;;;;;;;;;;6302497;28;20127;-80
2022/10/27 17:51:23;;;;;;;16.38;8.88;;;;;;;;;;6311141;28;20087;-80
2022/10/27 17:54:24;;;;;;;12.98;7.82;;;;;;;;;;6308518;28;20051;-80
2022/10/27 17:57:27;;;;;;;16.65;7.43;;;;;;;;;;6306900;28;20048;-79
2022/10/27 18:00:29;;;;;;;25.00;13.15;;;;;;;;;;6309429;28;20058;-81
2022/10/27 18:03:35;;;;;;;24.80;13.90;;;;;;;;;;6293296;28;20044;-79
2022/10/27 18:06:38;;;;;;;13.77;9.32;;;;;;;;;;6282773;28;20048;-79
2022/10/27 18:09:40;;;;;;;9.05;6.13;;;;;;;;;;6306568;28;21844;-81
2022/10/27 18:12:42;;;;;;;13.27;5.18;;;;;;;;;;6302553;28;20048;-80
2022/10/27 18:15:43;;;;;;;9.93;5.15;;;;;;;;;;6283959;28;20036;-80
2022/10/27 18:18:45;;;;;;;10.73;7.30;;;;;;;;;;6304069;28;20040;-81
2022/10/27 18:21:47;;;;;;;13.90;6.43;;;;;;;;;;6306555;28;20043;-79
2022/10/27 18:24:49;;;;;;;15.05;6.35;;;;;;;;;;6287794;28;20036;-80
2022/10/27 18:27:50;;;;;;;9.70;6.05;;;;;;;;;;6284043;28;20044;-80
2022/10/27 18:30:57;;;;;;;10.65;5.43;;;;;;;;;;6305935;28;20090;-80